createdAt,value
2019-05-25T00:02:24.019Z,44.33
2019-05-25T00:04:52.461Z,44.70
2019-05-25T00:07:20.984Z,50.25
2019-05-25T00:09:49.478Z,54.03
2019-05-25T00:12:18.052Z,57.73
2019-05-25T00:14:46.513Z,56.95
2019-05-25T00:17:15.065Z,58.55
2019-05-25T00:19:43.588Z,50.92
2019-05-25T00:22:12.032Z,59.90
2019-05-25T00:24:40.511Z,58.55
2019-05-25T00:27:08.954Z,59.35
2019-05-25T00:29:37.393Z,53.58
2019-05-25T00:32:05.930Z,65.35
2019-05-25T00:34:34.365Z,54.35
2019-05-25T00:37:02.809Z,44.42
2019-05-25T00:39:31.277Z,43.13
2019-05-25T00:41:59.722Z,44.55
2019-05-25T00:44:28.167Z,44.70
2019-05-25T00:46:56.632Z,52.25
2019-05-25T00:49:25.150Z,47.95
2019-05-25T00:51:53.585Z,43.23
2019-05-25T00:54:27.920Z,43.15
2019-05-25T00:56:52.458Z,48.98
2019-05-25T00:59:20.977Z,48.27
2019-05-25T01:01:49.451Z,48.92
2019-05-25T01:04:17.901Z,56.95
2019-05-25T01:07:05.797Z,64.17
2019-05-25T01:09:34.309Z,51.35
2019-05-25T01:12:02.749Z,49.58
2019-05-25T01:14:31.230Z,48.75
2019-05-25T01:16:59.666Z,54.75
2019-05-25T01:19:28.104Z,56.35
2019-05-25T01:21:56.606Z,66.40
2019-05-25T01:24:25.049Z,55.55
2019-05-25T01:26:53.489Z,48.73
2019-05-25T01:29:22.330Z,55.43
2019-05-25T01:31:50.774Z,48.45
2019-05-25T01:34:19.283Z,54.90
2019-05-25T01:36:47.821Z,50.03
2019-05-25T01:39:16.279Z,62.27
2019-05-25T01:41:44.793Z,68.07
2019-05-25T01:44:13.278Z,59.80
2019-05-25T01:46:41.798Z,61.13
2019-05-25T01:49:10.237Z,69.40
2019-05-25T01:51:38.731Z,65.32
2019-05-25T01:54:07.256Z,64.75
2019-05-25T01:56:35.756Z,70.35
2019-05-25T01:59:05.038Z,65.20
2019-05-25T02:01:33.553Z,68.55
2019-05-25T02:04:01.995Z,69.90
2019-05-25T02:06:30.470Z,62.20
2019-05-25T02:08:58.908Z,60.83
2019-05-25T02:11:27.364Z,62.90
2019-05-25T02:13:55.916Z,62.73
2019-05-25T02:16:24.348Z,57.93
2019-05-25T02:18:52.790Z,57.75
2019-05-25T02:21:21.270Z,63.68
2019-05-25T02:23:49.719Z,70.03
2019-05-25T02:26:18.161Z,69.07
2019-05-25T02:28:46.703Z,65.47
2019-05-25T02:31:16.499Z,68.10
2019-05-25T02:36:12.652Z,72.25
2019-05-25T02:38:41.101Z,66.12
2019-05-25T02:41:09.545Z,66.87
2019-05-25T02:43:38.472Z,69.75
2019-05-25T02:46:06.921Z,61.13
2019-05-25T02:48:35.505Z,68.85
2019-05-25T02:51:04.324Z,56.63
2019-05-25T02:53:32.772Z,53.00
2019-05-25T02:56:01.210Z,49.85
2019-05-25T02:58:29.765Z,58.52
2019-05-25T03:00:58.786Z,65.90
2019-05-25T03:03:27.292Z,68.52
2019-05-25T03:05:57.424Z,64.75
2019-05-25T03:08:25.873Z,70.20
2019-05-25T03:10:55.049Z,72.50
2019-05-25T03:13:23.528Z,64.20
2019-05-25T03:15:51.979Z,67.92
2019-05-25T03:18:20.422Z,73.97
2019-05-25T03:20:48.962Z,69.47
2019-05-25T03:23:17.411Z,68.62
2019-05-25T03:25:49.698Z,63.87
2019-05-25T03:28:16.154Z,65.75
2019-05-25T03:30:44.669Z,76.42
2019-05-25T03:33:13.184Z,62.80
2019-05-25T03:35:41.784Z,72.45
2019-05-25T03:38:10.309Z,78.20
2019-05-25T03:40:38.762Z,73.97
2019-05-25T03:43:07.250Z,70.30
2019-05-25T03:45:35.690Z,74.77
2019-05-25T03:48:04.282Z,65.60
2019-05-25T03:50:32.754Z,71.35
2019-05-25T03:53:01.272Z,72.20
2019-05-25T03:55:29.704Z,66.30
2019-05-25T03:57:59.118Z,59.67
2019-05-25T04:00:35.917Z,64.58
2019-05-25T04:03:06.935Z,64.95
2019-05-25T04:05:35.443Z,64.10
2019-05-25T04:08:04.265Z,65.42
2019-05-25T04:10:32.808Z,66.10
2019-05-25T04:13:01.326Z,64.22
2019-05-25T04:15:29.860Z,64.47
2019-05-25T04:17:58.361Z,64.27
2019-05-25T04:20:26.955Z,60.55
2019-05-25T04:22:55.405Z,62.58
2019-05-25T04:25:23.881Z,66.30
2019-05-25T04:27:52.339Z,68.57
2019-05-25T04:30:21.230Z,66.20
2019-05-25T04:32:49.711Z,68.37
2019-05-25T04:35:18.233Z,67.95
2019-05-25T04:37:46.679Z,65.20
2019-05-25T04:40:15.299Z,64.80
2019-05-25T04:42:43.760Z,60.08
2019-05-25T04:45:13.029Z,64.70
2019-05-25T04:47:41.568Z,62.60
2019-05-25T04:50:10.264Z,62.20
2019-05-25T04:52:41.231Z,62.53
2019-05-25T04:55:09.354Z,56.37
2019-05-25T04:57:37.866Z,57.25
2019-05-25T05:00:07.948Z,56.92
2019-05-25T05:02:36.510Z,57.35
2019-05-25T05:05:06.193Z,53.78
2019-05-25T05:10:03.290Z,53.28
2019-05-25T05:14:59.615Z,48.58
2019-05-25T05:17:28.093Z,46.50
2019-05-25T05:19:56.542Z,44.60
2019-05-25T05:22:24.994Z,41.73
2019-05-25T05:24:53.763Z,38.98
2019-05-25T05:27:22.248Z,37.63
2019-05-25T05:29:50.690Z,36.35
2019-05-25T05:32:27.587Z,36.48
2019-05-25T05:34:49.841Z,31.75
2019-05-25T05:37:18.424Z,31.35
2019-05-25T05:39:47.746Z,30.85
2019-05-25T05:42:18.506Z,28.27
2019-05-25T05:44:47.389Z,29.30
2019-05-25T05:47:17.194Z,29.00
2019-05-25T05:49:46.077Z,29.18
2019-05-25T05:52:16.834Z,28.83
2019-05-25T05:54:46.585Z,27.55
2019-05-25T05:57:15.031Z,29.00
2019-05-25T05:59:43.482Z,30.02
2019-05-25T06:02:12.065Z,29.27
2019-05-25T06:04:40.508Z,27.48
2019-05-25T06:07:09.013Z,30.37
2019-05-25T06:09:37.577Z,26.52
2019-05-25T06:12:06.039Z,27.70
2019-05-25T06:14:34.553Z,28.95
2019-05-25T06:17:03.106Z,26.77
2019-05-25T06:19:31.621Z,22.80
2019-05-25T06:22:00.084Z,25.32
2019-05-25T06:24:28.625Z,22.45
2019-05-25T06:26:57.072Z,25.05
2019-05-25T06:29:25.517Z,26.07
2019-05-25T06:31:54.003Z,23.98
2019-05-25T06:34:22.456Z,25.70
2019-05-25T06:36:50.917Z,24.60
2019-05-25T06:39:19.393Z,17.87
2019-05-25T06:41:48.308Z,20.48
2019-05-25T06:44:16.749Z,16.62
2019-05-25T06:46:45.243Z,18.05
2019-05-25T06:49:13.705Z,21.35
2019-05-25T06:51:42.152Z,21.55
2019-05-25T06:54:10.647Z,20.82
2019-05-25T06:56:39.094Z,18.62
2019-05-25T06:59:07.538Z,15.93
2019-05-25T07:01:36.038Z,17.17
2019-05-25T07:04:04.614Z,19.15
2019-05-25T07:06:33.056Z,17.05
2019-05-25T07:09:01.840Z,16.12
2019-05-25T07:11:30.284Z,15.60
2019-05-25T07:13:58.730Z,15.70
2019-05-25T07:16:27.221Z,17.92
2019-05-25T07:18:55.672Z,17.00
2019-05-25T07:21:24.188Z,16.55
2019-05-25T07:23:52.662Z,16.17
2019-05-25T07:26:21.111Z,15.95
2019-05-25T07:28:49.620Z,15.00
2019-05-25T07:31:18.137Z,12.73
2019-05-25T07:33:46.627Z,11.63
2019-05-25T07:36:15.214Z,10.72
2019-05-25T07:38:43.694Z,11.55
2019-05-25T07:41:12.135Z,12.43
2019-05-25T07:43:40.578Z,12.30
2019-05-25T07:46:09.047Z,12.45
2019-05-25T07:48:37.494Z,11.48
2019-05-25T07:51:05.963Z,11.40
2019-05-25T07:53:34.544Z,12.68
2019-05-25T07:56:02.990Z,11.25
2019-05-25T07:58:31.445Z,13.25
2019-05-25T08:00:59.915Z,11.05
2019-05-25T08:03:28.362Z,9.63
2019-05-25T08:05:56.809Z,10.50
2019-05-25T08:08:25.373Z,11.73
2019-05-25T08:10:54.176Z,11.97
2019-05-25T08:13:22.625Z,11.25
2019-05-25T08:15:51.182Z,14.47
2019-05-25T08:18:19.629Z,12.50
2019-05-25T08:20:48.088Z,10.35
2019-05-25T08:23:16.694Z,11.20
2019-05-25T08:25:45.135Z,9.33
2019-05-25T08:28:13.583Z,10.30
2019-05-25T08:30:42.214Z,10.13
2019-05-25T08:33:10.793Z,8.20
2019-05-25T08:35:39.310Z,10.60
2019-05-25T08:38:07.802Z,10.55
2019-05-25T08:40:36.306Z,10.00
2019-05-25T08:43:04.872Z,7.78
2019-05-25T08:45:33.690Z,10.33
2019-05-25T08:48:02.559Z,10.45
2019-05-25T08:50:38.159Z,8.55
2019-05-25T08:53:01.344Z,11.10
2019-05-25T08:55:29.994Z,7.53
2019-05-25T08:57:58.463Z,9.77
2019-05-25T09:00:27.140Z,7.77
2019-05-25T09:02:55.739Z,9.00
2019-05-25T09:05:24.190Z,10.90
2019-05-25T09:07:52.905Z,10.03
2019-05-25T09:10:21.417Z,11.57
2019-05-25T09:12:50.056Z,11.45
2019-05-25T09:15:18.755Z,9.53
2019-05-25T09:17:47.282Z,11.00
2019-05-25T09:20:16.570Z,9.63
2019-05-25T09:22:45.086Z,11.03
2019-05-25T09:25:14.004Z,10.53
2019-05-25T09:27:42.586Z,8.78
2019-05-25T09:30:11.583Z,11.20
2019-05-25T09:32:40.139Z,11.18
2019-05-25T09:35:09.217Z,9.80
2019-05-25T09:37:37.708Z,8.50
2019-05-25T09:40:07.034Z,8.23
2019-05-25T09:42:36.442Z,13.72
2019-05-25T09:47:36.976Z,7.70
2019-05-25T09:50:08.840Z,8.30
2019-05-25T09:52:37.342Z,8.68
2019-05-25T09:55:07.713Z,9.70
2019-05-25T09:57:36.232Z,8.40
2019-05-25T10:00:07.702Z,7.40
2019-05-25T10:02:36.161Z,9.18
2019-05-25T10:05:08.939Z,8.13
2019-05-25T10:07:37.472Z,8.55
2019-05-25T10:10:07.753Z,6.85
2019-05-25T10:12:36.268Z,8.68
2019-05-25T10:15:07.406Z,7.17
2019-05-25T10:17:35.841Z,8.75
2019-05-25T10:20:05.969Z,9.83
2019-05-25T10:22:34.561Z,9.95
2019-05-25T10:25:04.240Z,10.23
2019-05-25T10:27:34.343Z,9.85
2019-05-25T10:30:03.243Z,10.13
2019-05-25T10:32:31.684Z,9.28
2019-05-25T10:35:00.139Z,8.38
2019-05-25T10:37:28.669Z,8.50
2019-05-25T10:39:57.125Z,7.10
2019-05-25T10:42:25.570Z,8.50
2019-05-25T10:44:54.041Z,8.60
2019-05-25T10:47:22.557Z,7.77
2019-05-25T10:49:51.038Z,6.00
2019-05-25T10:52:19.552Z,11.47
2019-05-25T10:54:47.998Z,7.47
2019-05-25T10:57:16.525Z,7.08
2019-05-25T10:59:52.854Z,7.60
2019-05-25T11:02:15.224Z,7.40
2019-05-25T11:04:43.744Z,7.13
2019-05-25T11:07:12.220Z,6.87
2019-05-25T11:09:40.660Z,6.37
2019-05-25T11:12:09.109Z,7.23
2019-05-25T11:14:37.584Z,12.70
2019-05-25T11:17:06.440Z,9.33
2019-05-25T11:19:34.954Z,6.95
2019-05-25T11:22:03.507Z,6.60
2019-05-25T11:24:32.001Z,7.33
2019-05-25T11:27:00.437Z,7.10
2019-05-25T11:29:28.917Z,7.23
2019-05-25T11:32:01.586Z,10.50
2019-05-25T11:34:27.552Z,8.05
2019-05-25T11:36:56.033Z,8.78
2019-05-25T11:39:24.477Z,9.13
2019-05-25T11:41:52.920Z,6.45
2019-05-25T11:44:21.409Z,8.70
2019-05-25T11:46:49.926Z,5.77
2019-05-25T11:49:22.516Z,8.20
2019-05-25T11:51:48.573Z,8.18
2019-05-25T11:54:36.349Z,7.30
2019-05-25T11:57:04.889Z,9.83
2019-05-25T11:59:33.324Z,9.67
2019-05-25T12:02:01.765Z,10.23
2019-05-25T12:04:30.233Z,9.63
2019-05-25T12:06:58.682Z,8.83
2019-05-25T12:09:27.119Z,9.70
2019-05-25T12:11:55.587Z,8.83
2019-05-25T12:14:24.045Z,7.30
2019-05-25T12:16:52.487Z,7.07
2019-05-25T12:19:21.153Z,8.90
2019-05-25T12:21:49.673Z,14.65
2019-05-25T12:24:18.121Z,8.65
2019-05-25T12:26:46.602Z,9.73
2019-05-25T12:29:15.046Z,8.60
2019-05-25T12:31:43.504Z,10.10
2019-05-25T12:34:12.097Z,8.47
2019-05-25T12:36:40.622Z,14.58
2019-05-25T12:39:09.145Z,7.58
2019-05-25T12:41:37.607Z,9.20
2019-05-25T12:44:06.052Z,7.45
2019-05-25T12:46:34.498Z,8.50
2019-05-25T12:49:02.989Z,6.57
2019-05-25T12:51:31.446Z,9.97
2019-05-25T12:53:59.956Z,9.73
2019-05-25T12:56:28.428Z,10.28
2019-05-25T12:58:56.870Z,7.15
2019-05-25T13:01:25.325Z,10.97
2019-05-25T13:03:53.864Z,12.00
2019-05-25T13:06:23.179Z,8.23
2019-05-25T13:08:51.628Z,10.17
2019-05-25T13:11:20.171Z,8.63
2019-05-25T13:13:48.626Z,10.40
2019-05-25T13:16:17.152Z,11.03
2019-05-25T13:18:45.742Z,8.85
2019-05-25T13:21:14.495Z,8.75
2019-05-25T13:23:42.941Z,10.43
2019-05-25T13:26:11.481Z,8.87
2019-05-25T13:28:39.938Z,8.58
2019-05-25T13:31:11.842Z,10.40
2019-05-25T13:33:38.678Z,8.43
2019-05-25T13:36:07.195Z,8.23
2019-05-25T13:38:35.657Z,9.17
2019-05-25T13:41:04.280Z,10.73
2019-05-25T13:43:32.860Z,8.28
2019-05-25T13:46:01.305Z,8.85
2019-05-25T13:48:29.791Z,11.45
2019-05-25T13:50:58.245Z,13.25
2019-05-25T13:53:26.690Z,7.58
2019-05-25T13:55:55.151Z,7.85
2019-05-25T13:58:23.600Z,7.55
2019-05-25T14:00:52.040Z,9.85
2019-05-25T14:03:20.603Z,8.25
2019-05-25T14:05:49.050Z,7.17
2019-05-25T14:08:17.490Z,7.57
2019-05-25T14:10:45.956Z,8.17
2019-05-25T14:13:14.402Z,9.03
2019-05-25T14:15:42.841Z,6.70
2019-05-25T14:18:11.314Z,14.67
2019-05-25T14:20:39.753Z,6.10
2019-05-25T14:23:08.250Z,5.72
2019-05-25T14:25:36.793Z,6.20
2019-05-25T14:28:05.304Z,5.05
2019-05-25T14:30:35.286Z,5.47
2019-05-25T14:33:03.917Z,7.17
2019-05-25T14:35:32.364Z,5.80
2019-05-25T14:38:00.805Z,6.70
2019-05-25T14:40:29.351Z,9.00
2019-05-25T14:42:57.806Z,6.05
2019-05-25T14:45:26.261Z,6.33
2019-05-25T14:47:54.767Z,6.15
2019-05-25T14:50:23.211Z,8.20
2019-05-25T14:52:51.658Z,7.65
2019-05-25T14:55:20.207Z,5.85
2019-05-25T14:57:48.656Z,7.97
2019-05-25T15:00:18.962Z,7.97
2019-05-25T15:02:47.457Z,7.35
2019-05-25T15:05:16.033Z,6.70
2019-05-25T15:07:44.477Z,6.92
2019-05-25T15:10:13.309Z,4.62
2019-05-25T15:12:41.753Z,6.30
2019-05-25T15:15:10.633Z,6.17
2019-05-25T15:17:39.109Z,7.92
2019-05-25T15:20:08.894Z,7.87
2019-05-25T15:22:37.341Z,7.60
2019-05-25T15:25:08.160Z,7.55
2019-05-25T15:27:36.672Z,10.32
2019-05-25T15:30:10.323Z,7.42
2019-05-25T15:32:38.796Z,9.83
2019-05-25T15:35:07.983Z,10.63
2019-05-25T15:40:07.127Z,9.38
2019-05-25T15:42:35.570Z,9.88
2019-05-25T15:45:05.656Z,10.93
2019-05-25T15:47:34.129Z,8.30
2019-05-25T15:50:02.682Z,7.47
2019-05-25T15:52:31.585Z,7.40
2019-05-25T15:55:00.086Z,11.60
2019-05-25T15:57:28.586Z,7.50
2019-05-25T15:59:57.030Z,8.93
2019-05-25T16:02:36.443Z,9.18
2019-05-25T16:04:55.669Z,9.83
2019-05-25T16:07:24.114Z,9.07
2019-05-25T16:09:52.665Z,9.63
2019-05-25T16:12:21.106Z,9.08
2019-05-25T16:14:49.558Z,11.70
2019-05-25T16:17:18.065Z,14.07
2019-05-25T16:19:46.514Z,9.33
2019-05-25T16:22:14.960Z,9.90
2019-05-25T16:24:43.450Z,11.63
2019-05-25T16:27:12.117Z,9.45
2019-05-25T16:29:40.566Z,11.08
2019-05-25T16:32:09.106Z,10.47
2019-05-25T16:34:37.541Z,9.03
2019-05-25T16:37:06.137Z,12.13
2019-05-25T16:39:34.703Z,12.93
2019-05-25T16:42:03.140Z,9.60
2019-05-25T16:44:31.593Z,11.10
2019-05-25T16:47:00.084Z,12.45
2019-05-25T16:49:28.610Z,11.15
2019-05-25T16:51:57.121Z,12.73
2019-05-25T16:54:25.621Z,11.57
2019-05-25T16:56:54.122Z,9.90
2019-05-25T16:59:22.561Z,12.45
2019-05-25T17:01:51.036Z,10.65
2019-05-25T17:04:19.474Z,12.37
2019-05-25T17:06:47.924Z,11.12
2019-05-25T17:09:16.415Z,10.03
2019-05-25T17:11:44.930Z,12.73
2019-05-25T17:14:13.374Z,11.50
2019-05-25T17:16:41.867Z,12.40
2019-05-25T17:19:10.382Z,12.80
2019-05-25T17:21:38.816Z,11.43
2019-05-25T17:24:07.298Z,13.60
2019-05-25T17:26:35.741Z,11.87
2019-05-25T17:29:04.524Z,11.08
2019-05-25T17:31:33.070Z,13.48
2019-05-25T17:34:01.590Z,11.77
2019-05-25T17:36:30.033Z,12.40
2019-05-25T17:38:58.553Z,11.15
2019-05-25T17:41:27.067Z,12.47
2019-05-25T17:43:55.505Z,11.20
2019-05-25T17:46:24.006Z,12.37
2019-05-25T17:48:52.462Z,13.27
2019-05-25T17:51:20.911Z,14.78
2019-05-25T17:53:49.385Z,12.53
2019-05-25T17:56:17.826Z,14.10
2019-05-25T17:58:46.348Z,12.43
2019-05-25T18:01:14.824Z,14.73
2019-05-25T18:03:43.268Z,18.07
2019-05-25T18:06:11.726Z,15.58
2019-05-25T18:08:40.208Z,15.48
2019-05-25T18:11:08.728Z,14.90
2019-05-25T18:13:56.554Z,14.63
2019-05-25T18:16:25.014Z,16.67
2019-05-25T18:18:53.535Z,16.52
2019-05-25T18:21:22.031Z,17.75
2019-05-25T18:23:50.478Z,22.42
2019-05-25T18:26:19.004Z,18.48
2019-05-25T18:28:47.505Z,21.68
2019-05-25T18:31:16.181Z,19.00
2019-05-25T18:33:44.700Z,16.60
2019-05-25T18:36:13.187Z,24.80
2019-05-25T18:38:41.637Z,25.52
2019-05-25T18:41:10.090Z,23.38
2019-05-25T18:43:38.583Z,24.87
2019-05-25T18:46:07.123Z,23.83
2019-05-25T18:48:35.636Z,23.43
2019-05-25T18:51:04.278Z,23.45
2019-05-25T18:53:32.815Z,27.42
2019-05-25T18:56:01.262Z,27.07
2019-05-25T18:58:29.751Z,26.33
2019-05-25T19:00:58.244Z,24.75
2019-05-25T19:03:26.813Z,23.12
2019-05-25T19:05:55.311Z,23.95
2019-05-25T19:08:23.848Z,25.17
2019-05-25T19:10:52.293Z,28.30
2019-05-25T19:13:20.781Z,25.77
2019-05-25T19:15:49.239Z,27.85
2019-05-25T19:18:17.685Z,31.90
2019-05-25T19:20:46.173Z,35.10
2019-05-25T19:23:14.629Z,31.87
2019-05-25T19:25:43.142Z,34.08
2019-05-25T19:28:11.665Z,32.93
2019-05-25T19:30:40.115Z,37.42
2019-05-25T19:33:09.006Z,26.23
2019-05-25T19:35:37.543Z,26.95
2019-05-25T19:38:06.079Z,27.60
2019-05-25T19:40:34.592Z,33.00
2019-05-25T19:43:03.079Z,32.63
2019-05-25T19:45:32.869Z,35.95
2019-05-25T19:48:01.637Z,27.02
2019-05-25T19:50:30.131Z,33.40
2019-05-25T19:52:58.578Z,35.63
2019-05-25T19:55:27.041Z,39.80
2019-05-25T19:57:55.518Z,36.15
2019-05-25T20:00:24.213Z,38.42
2019-05-25T20:02:52.730Z,33.53
2019-05-25T20:05:21.284Z,35.63
2019-05-25T20:07:49.816Z,34.58
2019-05-25T20:10:18.774Z,33.13
2019-05-25T20:12:47.256Z,32.23
2019-05-25T20:15:15.775Z,33.08
2019-05-25T20:17:44.300Z,33.30
2019-05-25T20:20:13.414Z,34.63
2019-05-25T20:22:41.861Z,32.90
2019-05-25T20:25:10.551Z,35.00
2019-05-25T20:27:39.037Z,34.13
2019-05-25T20:30:08.927Z,37.55
2019-05-25T20:32:37.376Z,36.77
2019-05-25T20:35:07.511Z,36.30
2019-05-25T20:37:36.109Z,34.30
2019-05-25T20:40:07.165Z,34.65
2019-05-25T20:42:35.870Z,35.08
2019-05-25T20:45:06.556Z,36.20
2019-05-25T20:47:35.073Z,34.70
2019-05-25T20:50:07.392Z,34.90
2019-05-25T20:52:35.904Z,38.58
2019-05-25T20:55:09.873Z,40.35
2019-05-25T20:57:38.448Z,34.30
2019-05-25T21:00:07.365Z,39.20
2019-05-25T21:02:35.896Z,38.88
2019-05-25T21:05:06.788Z,40.95
2019-05-25T21:07:35.239Z,41.20
2019-05-25T21:10:07.678Z,36.60
2019-05-25T21:12:36.249Z,36.60
2019-05-25T21:15:08.089Z,38.98
2019-05-25T21:17:36.546Z,32.73
2019-05-25T21:20:06.132Z,37.05
2019-05-25T21:22:34.594Z,38.53
2019-05-25T21:25:06.175Z,35.80
2019-05-25T21:27:34.996Z,40.43
2019-05-25T21:30:03.883Z,39.85
2019-05-25T21:32:32.333Z,44.95
2019-05-25T21:35:00.903Z,39.80
2019-05-25T21:37:29.778Z,40.73
2019-05-25T21:39:58.304Z,41.85
2019-05-25T21:42:26.792Z,38.02
2019-05-25T21:44:55.250Z,37.90
2019-05-25T21:47:23.706Z,43.02
2019-05-25T21:49:52.275Z,38.65
2019-05-25T21:52:20.742Z,39.25
2019-05-25T21:54:49.192Z,40.52
2019-05-25T21:57:17.680Z,41.37
2019-05-25T21:59:46.137Z,43.45
2019-05-25T22:02:14.596Z,43.87
2019-05-25T22:04:43.146Z,46.25
2019-05-25T22:07:11.596Z,44.80
2019-05-25T22:09:40.114Z,46.90
2019-05-25T22:12:08.658Z,44.70
2019-05-25T22:14:37.109Z,43.87
2019-05-25T22:17:05.701Z,46.20
2019-05-25T22:19:34.183Z,46.95
2019-05-25T22:22:02.625Z,43.48
2019-05-25T22:24:31.080Z,42.65
2019-05-25T22:26:59.572Z,44.63
2019-05-25T22:29:28.085Z,49.25
2019-05-25T22:31:56.535Z,45.95
2019-05-25T22:34:25.031Z,52.75
2019-05-25T22:36:53.483Z,48.20
2019-05-25T22:39:22.122Z,45.45
2019-05-25T22:41:50.689Z,44.33
2019-05-25T22:44:19.208Z,50.95
2019-05-25T22:46:47.687Z,49.18
2019-05-25T22:49:16.158Z,51.37
2019-05-25T22:51:44.607Z,51.05
2019-05-25T22:54:13.044Z,44.85
2019-05-25T22:56:41.524Z,43.78
2019-05-25T22:59:09.980Z,47.33
2019-05-25T23:01:38.499Z,50.70
2019-05-25T23:04:06.976Z,49.20
2019-05-25T23:06:35.513Z,51.85
2019-05-25T23:09:06.578Z,50.78
2019-05-25T23:11:35.122Z,54.65
2019-05-25T23:14:04.309Z,51.42
2019-05-25T23:16:33.123Z,48.95
2019-05-25T23:19:01.602Z,47.70
2019-05-25T23:21:30.050Z,49.48
2019-05-25T23:23:58.490Z,50.12
2019-05-25T23:26:26.992Z,47.70
2019-05-25T23:28:55.436Z,47.55
2019-05-25T23:31:23.887Z,49.58
2019-05-25T23:33:52.375Z,46.85
2019-05-25T23:36:20.818Z,42.62
2019-05-25T23:38:49.328Z,47.78
2019-05-25T23:41:18.581Z,43.17
2019-05-25T23:43:47.025Z,46.80
2019-05-25T23:46:15.478Z,50.75
2019-05-25T23:48:43.978Z,46.13
2019-05-25T23:51:12.441Z,44.93
2019-05-25T23:53:40.945Z,43.35
2019-05-25T23:56:09.469Z,48.05
2019-05-25T23:58:37.930Z,46.45
